createdAt,value
2018-12-08T00:00:52.350Z,73.85
2018-12-08T00:01:52.301Z,73.74
2018-12-08T00:02:52.291Z,74.60
2018-12-08T00:03:52.321Z,74.91
2018-12-08T00:04:52.307Z,74.50
2018-12-08T00:05:52.256Z,75.84
2018-12-08T00:06:52.244Z,75.95
2018-12-08T00:07:52.234Z,75.43
2018-12-08T00:08:52.224Z,75.22
2018-12-08T00:09:52.213Z,74.71
2018-12-08T00:10:52.252Z,75.12
2018-12-08T00:11:52.190Z,74.60
2018-12-08T00:12:52.186Z,74.46
2018-12-08T00:13:52.167Z,74.36
2018-12-08T00:14:52.157Z,74.36
2018-12-08T00:15:52.148Z,74.88
2018-12-08T00:16:52.178Z,75.12
2018-12-08T00:17:52.125Z,74.71
2018-12-08T00:18:52.112Z,74.50
2018-12-08T00:19:52.103Z,74.57
2018-12-08T00:20:52.140Z,75.01
2018-12-08T00:21:52.080Z,75.01
2018-12-08T00:22:52.120Z,75.32
2018-12-08T00:23:52.058Z,76.04
2018-12-08T00:24:52.055Z,75.43
2018-12-08T00:25:52.047Z,74.60
2018-12-08T00:26:52.027Z,74.60
2018-12-08T00:27:52.012Z,74.40
2018-12-08T00:28:52.148Z,74.50
2018-12-08T00:29:51.990Z,74.05
2018-12-08T00:30:52.156Z,74.15
2018-12-08T00:31:51.970Z,74.57
2018-12-08T00:32:51.958Z,74.50
2018-12-08T00:33:51.946Z,74.15
2018-12-08T00:34:51.939Z,74.46
2018-12-08T00:35:51.926Z,73.95
2018-12-08T00:36:51.957Z,73.74
2018-12-08T00:37:51.902Z,73.12
2018-12-08T00:38:51.891Z,73.09
2018-12-08T00:39:51.881Z,73.30
2018-12-08T00:40:51.869Z,72.27
2018-12-08T00:41:51.862Z,72.03
2018-12-08T00:42:51.898Z,72.03
2018-12-08T00:43:51.835Z,71.82
2018-12-08T00:44:51.826Z,71.17
2018-12-08T00:45:51.815Z,70.65
2018-12-08T00:46:51.806Z,70.14
2018-12-08T00:47:51.836Z,71.78
2018-12-08T00:48:51.781Z,71.99
2018-12-08T00:49:51.769Z,71.99
2018-12-08T00:50:51.758Z,72.13
2018-12-08T00:51:51.774Z,72.85
2018-12-08T00:52:51.738Z,71.82
2018-12-08T00:53:51.771Z,72.03
2018-12-08T00:54:51.713Z,72.23
2018-12-08T00:55:51.704Z,72.23
2018-12-08T00:56:51.731Z,72.03
2018-12-08T00:57:51.680Z,72.20
2018-12-08T00:58:51.669Z,71.99
2018-12-08T00:59:51.702Z,71.99
2018-12-08T01:00:51.652Z,72.09
2018-12-08T01:01:51.639Z,72.09
2018-12-08T01:02:51.634Z,72.30
2018-12-08T01:03:51.616Z,72.20
2018-12-08T01:04:51.605Z,72.20
2018-12-08T01:05:51.630Z,72.09
2018-12-08T01:06:51.581Z,71.37
2018-12-08T01:07:51.569Z,72.20
2018-12-08T01:08:51.557Z,71.86
2018-12-08T01:09:51.596Z,72.16
2018-12-08T01:10:51.586Z,72.51
2018-12-08T01:11:51.526Z,72.61
2018-12-08T01:12:51.515Z,72.51
2018-12-08T01:13:51.508Z,72.20
2018-12-08T01:14:51.497Z,71.69
2018-12-08T01:15:51.481Z,71.96
2018-12-08T01:16:51.508Z,71.27
2018-12-08T01:17:51.457Z,72.51
2018-12-08T01:18:51.448Z,72.09
2018-12-08T01:19:51.477Z,72.30
2018-12-08T01:20:51.426Z,72.61
2018-12-08T01:21:51.453Z,72.33
2018-12-08T01:22:51.440Z,72.51
2018-12-08T01:23:51.395Z,72.51
2018-12-08T01:24:51.385Z,72.30
2018-12-08T01:25:51.411Z,72.51
2018-12-08T01:26:51.358Z,71.37
2018-12-08T01:27:51.349Z,70.93
2018-12-08T01:28:51.337Z,70.93
2018-12-08T01:29:51.325Z,70.83
2018-12-08T01:30:51.352Z,72.37
2018-12-08T01:31:51.303Z,72.06
2018-12-08T01:32:51.332Z,72.58
2018-12-08T01:33:51.281Z,72.09
2018-12-08T01:34:51.268Z,70.65
2018-12-08T01:35:51.262Z,71.48
2018-12-08T01:36:51.252Z,72.30
2018-12-08T01:37:51.280Z,72.47
2018-12-08T01:38:51.226Z,72.20
2018-12-08T01:39:51.216Z,72.30
2018-12-08T01:40:51.204Z,72.09
2018-12-08T01:41:51.206Z,72.81
2018-12-08T01:42:51.183Z,72.41
2018-12-08T01:43:51.210Z,72.54
2018-12-08T01:44:51.166Z,71.69
2018-12-08T01:45:51.151Z,71.99
2018-12-08T01:46:51.137Z,70.83
2018-12-08T01:47:51.128Z,71.86
2018-12-08T01:48:51.156Z,70.76
2018-12-08T01:49:51.105Z,71.17
2018-12-08T01:50:51.094Z,72.20
2018-12-08T01:51:51.085Z,70.86
2018-12-08T01:52:51.072Z,70.14
2018-12-08T01:53:51.063Z,70.96
2018-12-08T01:54:51.088Z,70.96
2018-12-08T01:55:51.039Z,70.58
2018-12-08T01:56:51.028Z,71.92
2018-12-08T01:57:51.016Z,72.13
2018-12-08T01:58:51.052Z,72.13
2018-12-08T01:59:51.005Z,71.51
2018-12-08T02:00:50.984Z,72.03
2018-12-08T02:01:50.971Z,72.33
2018-12-08T02:02:50.961Z,72.03
2018-12-08T02:03:52.810Z,72.03
2018-12-08T02:04:50.979Z,71.30
2018-12-08T02:05:50.931Z,71.10
2018-12-08T02:06:50.920Z,70.89
2018-12-08T02:07:50.945Z,71.20
2018-12-08T02:08:50.898Z,72.37
2018-12-08T02:09:50.886Z,72.58
2018-12-08T02:10:50.913Z,72.27
2018-12-08T02:11:50.862Z,72.58
2018-12-08T02:12:50.851Z,72.81
2018-12-08T02:13:50.859Z,72.61
2018-12-08T02:14:50.829Z,73.09
2018-12-08T02:15:50.821Z,71.89
2018-12-08T02:16:50.846Z,72.50
2018-12-08T02:17:50.798Z,71.68
2018-12-08T02:18:50.789Z,72.47
2018-12-08T02:19:50.773Z,72.16
2018-12-08T02:20:50.806Z,72.27
2018-12-08T02:21:50.752Z,71.68
2018-12-08T02:22:50.742Z,72.58
2018-12-08T02:23:50.730Z,72.30
2018-12-08T02:24:50.731Z,72.40
2018-12-08T02:25:50.745Z,71.95
2018-12-08T02:26:50.736Z,71.64
2018-12-08T02:27:50.684Z,71.03
2018-12-08T02:28:50.674Z,70.62
2018-12-08T02:29:50.663Z,72.06
2018-12-08T02:30:50.651Z,71.03
2018-12-08T02:31:50.641Z,70.92
2018-12-08T02:32:50.670Z,70.41
2018-12-08T02:33:50.619Z,71.13
2018-12-08T02:34:50.608Z,71.55
2018-12-08T02:35:50.603Z,71.37
2018-12-08T02:36:50.585Z,71.03
2018-12-08T02:37:50.621Z,71.75
2018-12-08T02:38:50.623Z,70.72
2018-12-08T02:39:50.553Z,70.72
2018-12-08T02:40:50.542Z,70.96
2018-12-08T02:41:50.536Z,70.82
2018-12-08T02:42:50.522Z,70.82
2018-12-08T02:43:50.508Z,70.92
2018-12-08T02:44:50.540Z,70.82
2018-12-08T02:45:50.487Z,70.51
2018-12-08T02:46:50.475Z,69.59
2018-12-08T02:47:50.469Z,69.24
2018-12-08T02:48:50.456Z,69.55
2018-12-08T02:49:50.441Z,69.76
2018-12-08T02:50:50.468Z,69.45
2018-12-08T02:51:50.421Z,69.69
2018-12-08T02:52:50.412Z,69.45
2018-12-08T02:53:50.397Z,69.48
2018-12-08T02:54:50.386Z,69.35
2018-12-08T02:55:50.777Z,69.45
2018-12-08T02:56:50.366Z,69.04
2018-12-08T02:57:50.354Z,68.59
2018-12-08T02:58:50.343Z,69.35
2018-12-08T02:59:50.330Z,69.65
2018-12-08T03:00:50.320Z,69.45
2018-12-08T03:01:50.339Z,69.96
2018-12-08T03:02:50.325Z,68.93
2018-12-08T03:03:50.317Z,69.45
2018-12-08T03:04:50.281Z,69.86
2018-12-08T03:05:50.267Z,68.42
2018-12-08T03:06:50.255Z,68.93
2018-12-08T03:07:50.241Z,69.96
2018-12-08T03:08:50.233Z,69.04
2018-12-08T03:09:50.249Z,68.73
2018-12-08T03:10:50.208Z,68.90
2018-12-08T03:11:50.199Z,69.11
2018-12-08T03:12:50.189Z,69.83
2018-12-08T03:13:50.210Z,69.42
2018-12-08T03:14:50.166Z,68.80
2018-12-08T03:15:50.154Z,69.31
2018-12-08T03:16:50.145Z,69.42
2018-12-08T03:17:50.166Z,69.31
2018-12-08T03:18:50.121Z,70.17
2018-12-08T03:19:50.126Z,70.34
2018-12-08T03:20:50.179Z,70.14
2018-12-08T03:21:50.089Z,71.00
2018-12-08T03:22:50.077Z,72.03
2018-12-08T03:23:50.101Z,71.82
2018-12-08T03:24:50.058Z,71.82
2018-12-08T03:25:50.042Z,71.61
2018-12-08T03:26:50.039Z,71.61
2018-12-08T03:27:50.023Z,72.13
2018-12-08T03:28:50.007Z,71.30
2018-12-08T03:29:50.034Z,71.30
2018-12-08T03:30:50.001Z,72.54
2018-12-08T03:31:49.976Z,72.33
2018-12-08T03:32:49.977Z,72.13
2018-12-08T03:33:49.956Z,72.64
2018-12-08T03:34:49.972Z,72.64
2018-12-08T03:35:50.126Z,72.64
2018-12-08T03:36:49.920Z,72.99
2018-12-08T03:37:49.948Z,73.57
2018-12-08T03:38:49.899Z,74.02
2018-12-08T03:39:50.126Z,74.12
2018-12-08T03:40:49.880Z,74.12
2018-12-08T03:41:49.895Z,74.22
2018-12-08T03:42:49.854Z,74.33
2018-12-08T03:43:49.842Z,74.33
2018-12-08T03:44:49.869Z,74.33
2018-12-08T03:45:49.821Z,74.84
2018-12-08T03:46:49.820Z,74.67
2018-12-08T03:47:49.801Z,74.95
2018-12-08T03:48:49.786Z,75.26
2018-12-08T03:49:49.809Z,75.05
2018-12-08T03:50:49.765Z,74.67
2018-12-08T03:51:49.755Z,75.26
2018-12-08T03:52:49.746Z,75.18
2018-12-08T03:53:49.733Z,74.95
2018-12-08T03:54:49.724Z,74.74
2018-12-08T03:55:49.740Z,74.63
2018-12-08T03:56:49.727Z,74.84
2018-12-08T03:57:49.689Z,75.67
2018-12-08T03:58:49.678Z,75.87
2018-12-08T03:59:49.665Z,74.71
2018-12-08T04:00:49.683Z,75.01
2018-12-08T04:01:49.647Z,74.50
2018-12-08T04:02:49.631Z,74.80
2018-12-08T04:03:49.627Z,74.91
2018-12-08T04:04:49.615Z,75.01
2018-12-08T04:05:50.139Z,75.12
2018-12-08T04:06:49.592Z,74.91
2018-12-08T04:07:49.576Z,74.71
2018-12-08T04:08:49.564Z,75.12
2018-12-08T04:09:49.555Z,75.01
2018-12-08T04:10:49.546Z,75.94
2018-12-08T04:11:49.565Z,75.73
2018-12-08T04:12:49.526Z,75.53
2018-12-08T04:13:49.511Z,75.84
2018-12-08T04:14:49.500Z,75.94
2018-12-08T04:15:49.487Z,75.73
2018-12-08T04:16:49.475Z,75.94
2018-12-08T04:17:49.495Z,75.73
2018-12-08T04:18:49.494Z,76.25
2018-12-08T04:19:49.443Z,76.76
2018-12-08T04:20:49.447Z,76.56
2018-12-08T04:21:49.421Z,76.56
2018-12-08T04:22:49.415Z,76.56
2018-12-08T04:23:49.399Z,76.56
2018-12-08T04:24:49.424Z,76.97
2018-12-08T04:25:49.376Z,76.87
2018-12-08T04:26:49.369Z,76.66
2018-12-08T04:27:49.356Z,77.08
2018-12-08T04:28:49.343Z,76.66
2018-12-08T04:29:49.331Z,77.28
2018-12-08T04:30:49.353Z,77.28
2018-12-08T04:31:49.310Z,77.48
2018-12-08T04:32:49.307Z,77.59
2018-12-08T04:33:49.288Z,77.69
2018-12-08T04:34:49.275Z,77.80
2018-12-08T04:35:49.263Z,77.80
2018-12-08T04:36:49.282Z,77.80
2018-12-08T04:37:49.244Z,78.00
2018-12-08T04:38:49.229Z,77.80
2018-12-08T04:39:49.225Z,78.31
2018-12-08T04:40:49.245Z,77.38
2018-12-08T04:41:49.199Z,77.38
2018-12-08T04:42:49.189Z,78.31
2018-12-08T04:43:49.176Z,77.69
2018-12-08T04:44:49.183Z,78.21
2018-12-08T04:45:49.154Z,78.11
2018-12-08T04:46:49.176Z,78.11
2018-12-08T04:47:49.135Z,77.80
2018-12-08T04:48:49.127Z,77.90
2018-12-08T04:49:49.110Z,76.97
2018-12-08T04:50:49.100Z,76.97
2018-12-08T04:51:49.131Z,77.90
2018-12-08T04:52:49.078Z,77.80
2018-12-08T04:53:49.065Z,76.66
2018-12-08T04:54:49.086Z,77.59
2018-12-08T04:55:49.049Z,76.87
2018-12-08T04:56:49.066Z,77.18
2018-12-08T04:57:49.025Z,77.28
2018-12-08T04:58:49.012Z,76.87
2018-12-08T04:59:49.028Z,77.48
2018-12-08T05:00:48.993Z,77.80
2018-12-08T05:01:48.981Z,77.55
2018-12-08T05:02:48.965Z,77.69
2018-12-08T05:03:48.955Z,77.48
2018-12-08T05:04:48.973Z,78.52
2018-12-08T05:05:48.934Z,78.21
2018-12-08T05:06:48.924Z,77.80
2018-12-08T05:07:48.941Z,77.90
2018-12-08T05:08:48.900Z,78.11
2018-12-08T05:09:48.888Z,77.48
2018-12-08T05:10:48.877Z,77.69
2018-12-08T05:11:48.896Z,77.59
2018-12-08T05:12:48.855Z,77.48
2018-12-08T05:13:48.844Z,78.00
2018-12-08T05:14:48.835Z,77.69
2018-12-08T05:15:48.823Z,77.66
2018-12-08T05:16:48.825Z,78.00
2018-12-08T05:17:48.829Z,78.62
2018-12-08T05:18:48.791Z,78.21
2018-12-08T05:19:48.808Z,77.69
2018-12-08T05:20:48.768Z,78.21
2018-12-08T05:21:48.756Z,78.21
2018-12-08T05:22:48.746Z,78.11
2018-12-08T05:23:48.768Z,78.00
2018-12-08T05:24:48.726Z,78.21
2018-12-08T05:25:48.715Z,78.00
2018-12-08T05:26:48.706Z,78.11
2018-12-08T05:27:48.691Z,78.11
2018-12-08T05:28:48.681Z,77.69
2018-12-08T05:29:48.699Z,78.11
2018-12-08T05:30:48.659Z,78.52
2018-12-08T05:31:48.647Z,78.31
2018-12-08T05:32:48.636Z,77.59
2018-12-08T05:33:48.625Z,78.00
2018-12-08T05:34:48.646Z,77.97
2018-12-08T05:35:48.606Z,77.35
2018-12-08T05:36:48.592Z,77.69
2018-12-08T05:37:48.653Z,78.17
2018-12-08T05:38:48.570Z,77.69
2018-12-08T05:39:48.562Z,78.07
2018-12-08T05:40:48.550Z,77.76
2018-12-08T05:41:48.543Z,77.35
2018-12-08T05:42:48.526Z,77.66
2018-12-08T05:43:48.545Z,77.45
2018-12-08T05:44:48.504Z,77.14
2018-12-08T05:45:48.494Z,77.66
2018-12-08T05:46:49.334Z,77.55
2018-12-08T05:47:48.475Z,77.25
2018-12-08T05:48:48.728Z,77.76
2018-12-08T05:49:48.450Z,77.76
2018-12-08T05:50:48.441Z,77.00
2018-12-08T05:51:48.431Z,77.11
2018-12-08T05:52:48.417Z,77.45
2018-12-08T05:53:48.407Z,77.25
2018-12-08T05:54:48.424Z,76.90
2018-12-08T05:55:48.385Z,77.00
2018-12-08T05:56:48.377Z,76.07
2018-12-08T05:57:48.362Z,76.49
2018-12-08T05:58:48.350Z,76.49
2018-12-08T05:59:48.378Z,75.87
2018-12-08T06:00:48.328Z,76.18
2018-12-08T06:01:48.322Z,76.49
2018-12-08T06:02:48.317Z,75.87
2018-12-08T06:03:48.330Z,76.59
2018-12-08T06:04:48.283Z,76.59
2018-12-08T06:05:48.280Z,76.07
2018-12-08T06:06:48.299Z,77.00
2018-12-08T06:07:48.254Z,76.49
2018-12-08T06:08:48.242Z,76.49
2018-12-08T06:09:48.278Z,76.07
2018-12-08T06:10:48.221Z,76.28
2018-12-08T06:11:48.212Z,76.79
2018-12-08T06:12:48.206Z,77.00
2018-12-08T06:13:48.189Z,76.70
2018-12-08T06:14:48.179Z,77.31
2018-12-08T06:15:48.200Z,78.03
2018-12-08T06:16:48.156Z,78.55
2018-12-08T06:17:48.149Z,79.06
2018-12-08T06:18:48.170Z,78.65
2018-12-08T06:19:48.121Z,79.58
2018-12-08T06:20:48.110Z,80.65
2018-12-08T06:21:48.101Z,79.30
2018-12-08T06:22:48.093Z,80.13
2018-12-08T06:23:48.078Z,81.05
2018-12-08T06:24:48.125Z,81.37
2018-12-08T06:25:48.053Z,80.99
2018-12-08T06:26:48.044Z,80.99
2018-12-08T06:27:48.034Z,81.40
2018-12-08T06:28:48.023Z,81.09
2018-12-08T06:29:48.015Z,82.23
2018-12-08T06:30:48.031Z,80.99
2018-12-08T06:31:47.993Z,81.40
2018-12-08T06:32:47.975Z,81.30
2018-12-08T06:33:48.002Z,82.33
2018-12-08T06:34:47.956Z,82.02
2018-12-08T06:35:47.950Z,81.92
2018-12-08T06:36:47.935Z,82.64
2018-12-08T06:37:48.116Z,81.30
2018-12-08T06:38:47.940Z,82.33
2018-12-08T06:39:47.901Z,81.85
2018-12-08T06:40:47.892Z,81.44
2018-12-08T06:41:47.881Z,80.79
2018-12-08T06:42:47.873Z,80.82
2018-12-08T06:43:47.889Z,81.44
2018-12-08T06:44:47.847Z,81.23
2018-12-08T06:45:47.850Z,81.44
2018-12-08T06:46:47.825Z,82.26
2018-12-08T06:47:47.815Z,82.26
2018-12-08T06:48:47.837Z,81.23
2018-12-08T06:49:47.792Z,81.68
2018-12-08T06:50:47.781Z,82.40
2018-12-08T06:51:47.768Z,81.44
2018-12-08T06:52:47.755Z,81.44
2018-12-08T06:53:47.749Z,80.41
2018-12-08T06:54:47.767Z,79.58
2018-12-08T06:55:47.730Z,80.30
2018-12-08T06:56:47.717Z,80.20
2018-12-08T06:57:47.721Z,80.00
2018-12-08T06:58:47.726Z,81.23
2018-12-08T06:59:47.679Z,79.58
2018-12-08T07:00:47.714Z,80.76
2018-12-08T07:01:47.658Z,79.93
2018-12-08T07:02:47.653Z,79.48
2018-12-08T07:03:47.644Z,79.62
2018-12-08T07:04:47.632Z,80.76
2018-12-08T07:05:47.658Z,79.93
2018-12-08T07:06:47.604Z,80.04
2018-12-08T07:07:47.597Z,79.27
2018-12-08T07:08:47.590Z,79.72
2018-12-08T07:09:47.573Z,79.58
2018-12-08T07:10:47.565Z,78.86
2018-12-08T07:11:47.616Z,79.17
2018-12-08T07:12:47.550Z,78.86
2018-12-08T07:13:47.543Z,80.24
2018-12-08T07:14:47.517Z,79.48
2018-12-08T07:15:47.508Z,80.00
2018-12-08T07:16:47.500Z,80.72
2018-12-08T07:17:47.524Z,80.30
2018-12-08T07:18:47.477Z,81.03
2018-12-08T07:19:47.495Z,80.82
2018-12-08T07:20:47.483Z,81.37
2018-12-08T07:21:47.458Z,80.72
2018-12-08T07:22:47.434Z,80.51
2018-12-08T07:23:47.422Z,81.13
2018-12-08T07:24:47.408Z,81.34
2018-12-08T07:25:47.409Z,81.44
2018-12-08T07:26:47.423Z,81.27
2018-12-08T07:27:47.378Z,81.48
2018-12-08T07:28:47.365Z,81.17
2018-12-08T07:29:47.351Z,80.96
2018-12-08T07:30:47.375Z,81.27
2018-12-08T07:31:47.344Z,81.48
2018-12-08T07:32:47.325Z,80.96
2018-12-08T07:33:47.348Z,81.37
2018-12-08T07:34:47.314Z,81.27
2018-12-08T07:35:47.291Z,81.27
2018-12-08T07:36:47.308Z,81.27
2018-12-08T07:37:47.269Z,80.00
2018-12-08T07:38:47.256Z,80.04
2018-12-08T07:39:47.248Z,79.48
2018-12-08T07:40:47.234Z,79.48
2018-12-08T07:41:47.259Z,79.69
2018-12-08T07:42:47.210Z,79.72
2018-12-08T07:43:47.204Z,79.72
2018-12-08T07:44:47.204Z,79.69
2018-12-08T07:45:47.184Z,78.80
2018-12-08T07:46:47.201Z,79.48
2018-12-08T07:47:47.159Z,79.52
2018-12-08T07:48:47.154Z,78.76
2018-12-08T07:49:47.141Z,78.04
2018-12-08T07:50:47.126Z,78.76
2018-12-08T07:51:47.146Z,78.86
2018-12-08T07:52:47.103Z,79.17
2018-12-08T07:53:47.098Z,78.86
2018-12-08T07:54:47.117Z,77.87
2018-12-08T07:55:47.076Z,77.94
2018-12-08T07:56:47.064Z,77.42
2018-12-08T07:57:47.323Z,77.94
2018-12-08T07:58:47.045Z,77.73
2018-12-08T07:59:47.033Z,76.97
2018-12-08T08:00:47.023Z,77.11
2018-12-08T08:01:47.004Z,77.52
2018-12-08T08:02:46.995Z,76.56
2018-12-08T08:03:47.018Z,77.38
2018-12-08T08:04:46.978Z,77.18
2018-12-08T08:05:46.999Z,77.28
2018-12-08T08:06:47.009Z,77.28
2018-12-08T08:07:46.945Z,77.48
2018-12-08T08:08:46.929Z,78.76
2018-12-08T08:09:46.918Z,78.86
2018-12-08T08:10:46.911Z,78.66
2018-12-08T08:11:46.937Z,79.48
2018-12-08T08:12:46.897Z,81.23
2018-12-08T08:13:46.874Z,79.31
2018-12-08T08:14:46.868Z,79.58
2018-12-08T08:15:46.852Z,79.48
2018-12-08T08:16:46.840Z,79.31
2018-12-08T08:17:46.861Z,79.83
2018-12-08T08:18:46.826Z,79.48
2018-12-08T08:19:46.809Z,79.38
2018-12-08T08:20:46.806Z,79.58
2018-12-08T08:21:46.791Z,79.58
2018-12-08T08:22:46.778Z,79.83
2018-12-08T08:23:46.793Z,79.31
2018-12-08T08:24:46.754Z,80.00
2018-12-08T08:25:46.758Z,79.90
2018-12-08T08:26:46.732Z,79.69
2018-12-08T08:27:46.751Z,80.14
2018-12-08T08:28:46.712Z,79.72
2018-12-08T08:29:46.701Z,80.24
2018-12-08T08:30:46.689Z,80.44
2018-12-08T08:31:46.689Z,79.72
2018-12-08T08:32:46.664Z,80.14
2018-12-08T08:33:46.688Z,80.44
2018-12-08T08:34:46.646Z,79.69
2018-12-08T08:35:46.635Z,79.79
2018-12-08T08:36:46.623Z,79.69
2018-12-08T08:37:46.615Z,78.97
2018-12-08T08:38:46.601Z,78.66
2018-12-08T08:39:46.625Z,78.93
2018-12-08T08:40:46.580Z,78.00
2018-12-08T08:41:46.599Z,78.21
2018-12-08T08:42:46.560Z,78.21
2018-12-08T08:43:46.585Z,78.31
2018-12-08T08:44:46.536Z,78.41
2018-12-08T08:45:46.544Z,78.28
2018-12-08T08:46:46.511Z,77.86
2018-12-08T08:47:46.503Z,77.55
2018-12-08T08:48:46.496Z,78.07
2018-12-08T08:49:46.608Z,77.72
2018-12-08T08:50:46.472Z,78.44
2018-12-08T08:51:46.461Z,76.70
2018-12-08T08:52:46.449Z,77.86
2018-12-08T08:53:46.435Z,77.66
2018-12-08T08:54:46.426Z,77.35
2018-12-08T08:55:46.455Z,77.25
2018-12-08T08:56:46.414Z,77.72
2018-12-08T08:57:46.399Z,76.79
2018-12-08T08:58:46.384Z,77.21
2018-12-08T08:59:46.369Z,77.21
2018-12-08T09:00:46.361Z,77.51
2018-12-08T09:01:46.380Z,77.00
2018-12-08T09:02:46.342Z,76.28
2018-12-08T09:03:46.329Z,76.90
2018-12-08T09:04:46.320Z,76.18
2018-12-08T09:05:46.304Z,76.90
2018-12-08T09:06:46.556Z,76.28
2018-12-08T09:07:46.280Z,77.31
2018-12-08T09:08:46.268Z,75.01
2018-12-08T09:09:46.263Z,75.52
2018-12-08T09:10:46.269Z,75.22
2018-12-08T09:11:46.237Z,74.91
2018-12-08T09:12:46.268Z,75.63
2018-12-08T09:13:46.213Z,75.18
2018-12-08T09:14:46.213Z,75.49
2018-12-08T09:15:46.191Z,74.98
2018-12-08T09:16:46.210Z,74.40
2018-12-08T09:17:46.211Z,74.60
2018-12-08T09:18:46.161Z,74.80
2018-12-08T09:19:46.148Z,74.91
2018-12-08T09:20:46.143Z,73.95
2018-12-08T09:21:46.128Z,74.91
2018-12-08T09:22:46.113Z,75.42
2018-12-08T09:23:46.132Z,75.94
2018-12-08T09:24:46.132Z,76.39
2018-12-08T09:25:46.086Z,77.00
2018-12-08T09:26:46.076Z,77.42
2018-12-08T09:27:46.057Z,77.31
2018-12-08T09:28:46.045Z,77.51
2018-12-08T09:29:46.039Z,77.72
2018-12-08T09:30:46.057Z,77.62
2018-12-08T09:31:46.018Z,77.42
2018-12-08T09:32:46.003Z,77.42
2018-12-08T09:33:45.997Z,77.93
2018-12-08T09:34:45.994Z,77.51
2018-12-08T09:35:45.970Z,77.11
2018-12-08T09:36:45.989Z,77.31
2018-12-08T09:37:45.950Z,77.31
2018-12-08T09:38:45.946Z,76.49
2018-12-08T09:39:45.935Z,75.73
2018-12-08T09:40:45.947Z,75.84
2018-12-08T09:41:45.937Z,75.94
2018-12-08T09:42:45.898Z,75.80
2018-12-08T09:43:45.881Z,75.42
2018-12-08T09:44:45.873Z,74.77
2018-12-08T09:45:45.900Z,74.57
2018-12-08T09:46:45.848Z,75.08
2018-12-08T09:47:45.841Z,73.74
2018-12-08T09:48:45.827Z,74.15
2018-12-08T09:49:45.817Z,74.15
2018-12-08T09:50:45.804Z,73.71
2018-12-08T09:51:45.824Z,74.22
2018-12-08T09:52:45.786Z,74.22
2018-12-08T09:53:45.770Z,73.30
2018-12-08T09:54:47.521Z,73.61
2018-12-08T09:55:45.753Z,74.12
2018-12-08T09:56:45.739Z,74.43
2018-12-08T09:57:45.757Z,74.46
2018-12-08T09:58:45.729Z,74.22
2018-12-08T09:59:45.708Z,74.12
2018-12-08T10:00:45.693Z,73.61
2018-12-08T10:01:45.689Z,73.95
2018-12-08T10:02:45.671Z,74.12
2018-12-08T10:03:45.714Z,74.12
2018-12-08T10:04:45.657Z,73.44
2018-12-08T10:05:45.639Z,72.51
2018-12-08T10:06:45.629Z,73.64
2018-12-08T10:07:45.615Z,73.71
2018-12-08T10:08:45.604Z,73.71
2018-12-08T10:09:45.624Z,73.61
2018-12-08T10:10:45.584Z,72.38
2018-12-08T10:11:45.573Z,72.27
2018-12-08T10:12:45.560Z,72.99
2018-12-08T10:13:45.554Z,73.61
2018-12-08T10:14:45.539Z,73.81
2018-12-08T10:15:45.564Z,73.78
2018-12-08T10:16:45.527Z,72.96
2018-12-08T10:17:45.513Z,72.34
2018-12-08T10:18:45.499Z,72.75
2018-12-08T10:19:45.490Z,73.47
2018-12-08T10:20:45.608Z,72.34
2018-12-08T10:21:45.464Z,73.54
2018-12-08T10:22:45.455Z,72.65
2018-12-08T10:23:45.442Z,72.96
2018-12-08T10:24:45.472Z,72.44
2018-12-08T10:25:45.419Z,73.47
2018-12-08T10:26:45.408Z,73.27
2018-12-08T10:27:45.399Z,73.06
2018-12-08T10:28:45.394Z,73.06
2018-12-08T10:29:45.371Z,73.68
2018-12-08T10:30:45.610Z,74.15
2018-12-08T10:31:45.388Z,73.78
2018-12-08T10:32:45.341Z,73.78
2018-12-08T10:33:45.327Z,74.46
2018-12-08T10:34:45.319Z,75.93
2018-12-08T10:35:45.308Z,75.73
2018-12-08T10:36:45.327Z,74.91
2018-12-08T10:37:45.294Z,74.80
2018-12-08T10:38:45.273Z,75.83
2018-12-08T10:39:45.277Z,76.14
2018-12-08T10:40:45.259Z,76.04
2018-12-08T10:41:45.243Z,76.14
2018-12-08T10:42:45.257Z,75.52
2018-12-08T10:43:45.220Z,76.86
2018-12-08T10:44:45.218Z,76.35
2018-12-08T10:45:45.198Z,76.25
2018-12-08T10:46:45.183Z,76.65
2018-12-08T10:47:45.181Z,76.55
2018-12-08T10:48:45.467Z,77.06
2018-12-08T10:49:45.154Z,77.68
2018-12-08T10:50:45.136Z,76.65
2018-12-08T10:51:45.132Z,76.69
2018-12-08T10:52:45.116Z,76.76
2018-12-08T10:53:45.496Z,76.55
2018-12-08T10:54:45.148Z,76.65
2018-12-08T10:55:45.086Z,76.65
2018-12-08T10:56:45.102Z,76.86
2018-12-08T10:57:45.063Z,77.17
2018-12-08T10:58:45.094Z,76.86
2018-12-08T10:59:45.042Z,76.93
2018-12-08T11:00:45.044Z,76.62
2018-12-08T11:01:45.019Z,75.49
2018-12-08T11:02:45.005Z,76.10
2018-12-08T11:03:45.026Z,75.80
2018-12-08T11:04:44.996Z,75.66
2018-12-08T11:05:44.979Z,74.63
2018-12-08T11:06:44.998Z,74.22
2018-12-08T11:07:44.954Z,74.40
2018-12-08T11:08:44.949Z,73.44
2018-12-08T11:09:44.954Z,73.57
2018-12-08T11:10:44.920Z,72.75
2018-12-08T11:11:44.987Z,72.51
2018-12-08T11:12:44.900Z,71.90
2018-12-08T11:13:44.978Z,71.90
2018-12-08T11:14:44.956Z,71.04
2018-12-08T11:15:44.894Z,71.25
2018-12-08T11:16:44.856Z,70.53
2018-12-08T11:17:44.848Z,69.89
2018-12-08T11:18:44.831Z,69.06
2018-12-08T11:19:44.818Z,69.06
2018-12-08T11:20:44.835Z,68.35
2018-12-08T11:21:44.827Z,69.13
2018-12-08T11:22:44.781Z,68.96
2018-12-08T11:23:44.773Z,69.47
2018-12-08T11:24:44.764Z,68.52
2018-12-08T11:25:44.751Z,68.76
2018-12-08T11:26:44.734Z,68.96
2018-12-08T11:27:44.772Z,69.47
2018-12-08T11:28:44.721Z,68.86
2018-12-08T11:29:44.707Z,69.89
2018-12-08T11:30:44.697Z,70.50
2018-12-08T11:31:44.680Z,73.36
2018-12-08T11:32:44.675Z,72.68
2018-12-08T11:33:44.710Z,73.40
2018-12-08T11:34:44.646Z,73.40
2018-12-08T11:35:44.637Z,74.32
2018-12-08T11:36:49.482Z,75.56
2018-12-08T11:37:45.608Z,75.90
2018-12-08T11:38:44.605Z,74.77
2018-12-08T11:39:44.620Z,74.36
2018-12-08T11:40:44.590Z,74.57
2018-12-08T11:41:44.568Z,75.38
2018-12-08T11:42:44.563Z,74.57
2018-12-08T11:43:44.552Z,75.59
2018-12-08T11:44:44.530Z,75.38
2018-12-08T11:45:44.565Z,75.90
2018-12-08T11:46:44.508Z,75.38
2018-12-08T11:47:44.508Z,75.69
2018-12-08T11:48:44.502Z,76.00
2018-12-08T11:49:44.487Z,75.79
2018-12-08T11:50:44.505Z,76.00
2018-12-08T11:51:44.458Z,76.92
2018-12-08T11:52:44.448Z,77.44
2018-12-08T11:53:44.435Z,77.84
2018-12-08T11:54:44.425Z,76.72
2018-12-08T11:55:44.420Z,76.72
2018-12-08T11:56:44.436Z,76.45
2018-12-08T11:57:44.388Z,77.54
2018-12-08T11:58:44.377Z,77.47
2018-12-08T11:59:44.370Z,77.26
2018-12-08T12:00:44.351Z,77.88
2018-12-08T12:01:44.340Z,76.86
2018-12-08T12:02:44.368Z,77.03
2018-12-08T12:03:44.319Z,77.64
2018-12-08T12:04:44.310Z,77.54
2018-12-08T12:05:44.563Z,77.44
2018-12-08T12:06:44.291Z,76.41
2018-12-08T12:07:44.280Z,76.20
2018-12-08T12:08:44.263Z,76.10
2018-12-08T12:09:44.261Z,75.59
2018-12-08T12:10:44.251Z,76.00
2018-12-08T12:11:44.275Z,74.57
2018-12-08T12:12:44.219Z,75.38
2018-12-08T12:13:44.226Z,76.51
2018-12-08T12:14:44.197Z,76.62
2018-12-08T12:15:44.206Z,75.59
2018-12-08T12:16:44.183Z,75.49
2018-12-08T12:17:44.197Z,76.20
2018-12-08T12:18:44.159Z,75.49
2018-12-08T12:19:44.185Z,74.87
2018-12-08T12:20:44.135Z,75.59
2018-12-08T12:21:44.119Z,74.66
2018-12-08T12:22:44.112Z,74.36
2018-12-08T12:23:44.114Z,75.08
2018-12-08T12:25:58.609Z,75.49
2018-12-08T12:26:58.676Z,73.30
2018-12-08T12:27:58.556Z,73.74
2018-12-08T12:28:58.544Z,72.89
2018-12-08T12:29:58.534Z,73.95
2018-12-08T12:30:58.519Z,72.68
2018-12-08T12:31:58.516Z,72.78
2018-12-08T12:32:58.536Z,72.68
2018-12-08T12:33:58.488Z,73.71
2018-12-08T12:34:58.477Z,72.17
2018-12-08T12:35:58.466Z,72.17
2018-12-08T12:36:58.459Z,71.83
2018-12-08T12:37:58.441Z,72.24
2018-12-08T12:38:58.477Z,70.94
2018-12-08T12:39:58.423Z,70.19
2018-12-08T12:40:58.414Z,69.27
2018-12-08T12:41:58.403Z,69.68
2018-12-08T12:42:58.390Z,69.57
2018-12-08T12:43:58.404Z,69.24
2018-12-08T12:44:58.364Z,70.09
2018-12-08T12:45:58.358Z,69.68
2018-12-08T12:46:58.341Z,69.89
2018-12-08T12:47:58.377Z,70.09
2018-12-08T12:48:58.323Z,69.37
2018-12-08T12:49:58.308Z,69.57
2018-12-08T12:50:58.299Z,69.06
2018-12-08T12:51:58.286Z,70.60
2018-12-08T12:52:58.284Z,69.47
2018-12-08T12:53:58.332Z,70.50